createdAt,value
2019-03-10T00:01:42.139Z,14.73
2019-03-10T00:04:13.349Z,14.93
2019-03-10T00:06:44.607Z,15.63
2019-03-10T00:09:15.821Z,14.40
2019-03-10T00:11:47.044Z,15.30
2019-03-10T00:14:18.211Z,15.28
2019-03-10T00:16:49.395Z,14.05
2019-03-10T00:19:20.596Z,15.38
2019-03-10T00:21:51.867Z,15.30
2019-03-10T00:24:23.087Z,16.57
2019-03-10T00:26:54.286Z,15.63
2019-03-10T00:29:25.610Z,16.30
2019-03-10T00:31:56.824Z,16.75
2019-03-10T00:34:29.590Z,15.20
2019-03-10T00:37:00.876Z,15.60
2019-03-10T00:39:58.669Z,14.10
2019-03-10T00:43:01.721Z,14.43
2019-03-10T00:46:05.431Z,14.20
2019-03-10T00:49:02.189Z,14.40
2019-03-10T00:51:42.354Z,13.38
2019-03-10T00:54:13.611Z,13.40
2019-03-10T00:56:45.415Z,14.25
2019-03-10T00:59:18.263Z,14.63
2019-03-10T01:01:49.980Z,13.70
2019-03-10T01:06:53.735Z,15.55
2019-03-10T01:09:25.131Z,15.43
2019-03-10T01:11:56.257Z,14.55
2019-03-10T01:14:28.994Z,14.18
2019-03-10T01:17:01.460Z,14.38
2019-03-10T01:19:34.340Z,13.55
2019-03-10T01:22:05.537Z,14.58
2019-03-10T01:24:39.319Z,12.47
2019-03-10T01:27:10.478Z,12.88
2019-03-10T01:29:41.654Z,12.68
2019-03-10T01:32:25.134Z,11.12
2019-03-10T01:35:08.616Z,12.23
2019-03-10T01:37:39.712Z,12.05
2019-03-10T01:40:10.851Z,11.55
2019-03-10T01:45:13.077Z,11.43
2019-03-10T01:47:44.182Z,11.35
2019-03-10T01:50:15.353Z,11.57
2019-03-10T01:52:46.491Z,12.78
2019-03-10T01:55:18.932Z,11.85
2019-03-10T01:57:50.095Z,10.65
2019-03-10T02:00:21.369Z,11.50
2019-03-10T02:02:52.499Z,11.65
2019-03-10T02:05:24.945Z,10.93
2019-03-10T02:07:56.130Z,12.28
2019-03-10T02:10:27.244Z,11.33
2019-03-10T02:15:29.850Z,10.48
2019-03-10T02:18:00.996Z,10.30
2019-03-10T02:20:32.201Z,10.20
2019-03-10T02:23:03.362Z,10.72
2019-03-10T02:25:35.026Z,10.05
2019-03-10T02:28:07.767Z,10.08
2019-03-10T02:30:38.944Z,9.80
2019-03-10T02:33:10.087Z,9.60
2019-03-10T02:35:41.231Z,10.58
2019-03-10T02:38:12.384Z,10.40
2019-03-10T02:40:44.371Z,10.28
2019-03-10T02:43:15.535Z,10.65
2019-03-10T02:45:46.771Z,10.80
2019-03-10T02:48:18.058Z,10.28
2019-03-10T02:50:49.168Z,10.55
2019-03-10T02:53:20.480Z,10.28
2019-03-10T02:55:51.758Z,10.60
2019-03-10T02:58:22.919Z,9.93
2019-03-10T03:00:54.065Z,11.20
2019-03-10T03:03:25.237Z,12.28
2019-03-10T03:05:56.510Z,10.30
2019-03-10T03:08:27.668Z,10.15
2019-03-10T03:11:00.337Z,11.18
2019-03-10T03:13:31.862Z,11.43
2019-03-10T03:16:03.018Z,10.63
2019-03-10T03:18:34.191Z,11.08
2019-03-10T03:21:05.445Z,11.08
2019-03-10T03:23:36.565Z,11.25
2019-03-10T03:28:38.174Z,12.23
2019-03-10T03:31:11.025Z,11.50
2019-03-10T03:33:42.056Z,11.68
2019-03-10T03:36:22.000Z,11.38
2019-03-10T03:38:59.164Z,13.70
2019-03-10T03:41:30.364Z,11.70
2019-03-10T03:44:01.527Z,11.53
2019-03-10T03:46:32.691Z,11.00
2019-03-10T03:49:07.325Z,11.18
2019-03-10T03:51:38.631Z,11.53
2019-03-10T03:54:09.861Z,10.98
2019-03-10T03:56:41.065Z,11.20
2019-03-10T03:59:13.717Z,11.18
2019-03-10T04:01:47.494Z,11.43
2019-03-10T04:04:18.705Z,11.00
2019-03-10T04:06:49.922Z,11.48
2019-03-10T04:09:21.086Z,12.05
2019-03-10T04:11:52.391Z,12.03
2019-03-10T04:14:23.571Z,11.22
2019-03-10T04:16:56.294Z,11.55
2019-03-10T04:19:27.867Z,11.22
2019-03-10T04:21:59.354Z,11.97
2019-03-10T04:24:30.860Z,11.30
2019-03-10T04:27:02.171Z,10.58
2019-03-10T04:29:33.287Z,11.40
2019-03-10T04:32:04.438Z,11.18
2019-03-10T04:34:35.633Z,11.08
2019-03-10T04:37:08.446Z,11.15
2019-03-10T04:39:39.573Z,11.70
2019-03-10T04:42:10.718Z,10.30
2019-03-10T04:44:41.879Z,11.18
2019-03-10T04:47:13.103Z,11.38
2019-03-10T04:49:44.729Z,11.35
2019-03-10T04:52:15.920Z,10.10
2019-03-10T04:54:57.676Z,10.20
2019-03-10T04:57:28.944Z,11.38
2019-03-10T05:00:02.813Z,11.30
2019-03-10T05:02:34.195Z,10.85
2019-03-10T05:05:06.967Z,11.88
2019-03-10T05:07:39.021Z,11.65
2019-03-10T05:10:11.515Z,11.50
2019-03-10T05:12:42.736Z,11.12
2019-03-10T05:15:13.857Z,10.88
2019-03-10T05:17:45.025Z,11.65
2019-03-10T05:20:16.248Z,10.45
2019-03-10T05:22:47.452Z,11.33
2019-03-10T05:25:22.507Z,10.53
2019-03-10T05:27:53.729Z,10.78
2019-03-10T05:30:24.890Z,10.58
2019-03-10T05:32:57.267Z,10.60
2019-03-10T05:35:28.412Z,11.73
2019-03-10T05:37:59.702Z,11.12
2019-03-10T05:40:30.865Z,11.30
2019-03-10T05:43:02.007Z,11.70
2019-03-10T05:45:34.044Z,11.35
2019-03-10T05:48:06.375Z,10.78
2019-03-10T05:50:37.518Z,10.48
2019-03-10T05:53:08.707Z,12.35
2019-03-10T05:55:40.982Z,11.50
2019-03-10T05:58:13.731Z,11.90
2019-03-10T06:00:44.871Z,11.85
2019-03-10T06:03:16.085Z,11.38
2019-03-10T06:05:47.322Z,11.55
2019-03-10T06:08:18.588Z,12.70
2019-03-10T06:10:51.245Z,12.93
2019-03-10T06:13:24.641Z,10.95
2019-03-10T06:15:56.402Z,12.75
2019-03-10T06:18:27.599Z,12.25
2019-03-10T06:20:58.735Z,13.20
2019-03-10T06:23:31.316Z,11.85
2019-03-10T06:26:03.384Z,12.10
2019-03-10T06:28:34.508Z,12.68
2019-03-10T06:31:06.122Z,12.33
2019-03-10T06:33:37.382Z,13.10
2019-03-10T06:36:10.050Z,12.55
2019-03-10T06:38:41.369Z,10.98
2019-03-10T06:41:12.560Z,10.28
2019-03-10T06:43:43.851Z,11.65
2019-03-10T06:46:15.109Z,11.10
2019-03-10T06:48:46.662Z,10.95
2019-03-10T06:51:19.658Z,11.65
2019-03-10T06:53:50.920Z,11.05
2019-03-10T06:56:23.641Z,11.35
2019-03-10T06:58:54.863Z,10.72
2019-03-10T07:01:26.048Z,10.95
2019-03-10T07:03:58.249Z,11.28
2019-03-10T07:06:29.399Z,10.08
2019-03-10T07:09:00.853Z,10.28
2019-03-10T07:11:35.867Z,10.63
2019-03-10T07:14:07.204Z,9.93
2019-03-10T07:16:38.387Z,9.48
2019-03-10T07:19:10.442Z,10.05
2019-03-10T07:21:42.896Z,9.93
2019-03-10T07:24:14.088Z,9.55
2019-03-10T07:26:45.269Z,8.38
2019-03-10T07:29:23.828Z,9.58
2019-03-10T07:31:56.551Z,8.55
2019-03-10T07:34:30.215Z,8.35
2019-03-10T07:37:11.130Z,9.60
2019-03-10T07:39:49.621Z,10.88
2019-03-10T07:42:23.542Z,11.10
2019-03-10T07:44:59.483Z,8.85
2019-03-10T07:47:45.764Z,9.13
2019-03-10T07:50:24.424Z,8.43
2019-03-10T07:53:05.996Z,8.85
2019-03-10T07:55:44.713Z,8.53
2019-03-10T07:58:17.468Z,8.50
2019-03-10T08:00:55.776Z,8.13
2019-03-10T08:03:44.738Z,7.35
2019-03-10T08:06:23.248Z,6.22
2019-03-10T08:09:12.238Z,7.17
2019-03-10T08:12:01.102Z,6.70
2019-03-10T08:14:40.134Z,6.30
2019-03-10T08:17:24.792Z,6.53
2019-03-10T08:20:03.570Z,6.50
2019-03-10T08:22:54.519Z,6.97
2019-03-10T08:25:43.587Z,5.97
2019-03-10T08:28:34.577Z,5.67
2019-03-10T08:31:25.297Z,5.75
2019-03-10T08:33:58.080Z,5.65
2019-03-10T08:36:37.548Z,5.33
2019-03-10T08:39:26.647Z,5.30
2019-03-10T08:42:19.444Z,4.55
2019-03-10T08:44:56.208Z,3.92
2019-03-10T08:47:38.693Z,4.08
2019-03-10T08:50:11.452Z,3.05
2019-03-10T08:52:44.172Z,3.58
2019-03-10T08:55:35.229Z,3.08
2019-03-10T08:58:11.936Z,3.35
2019-03-10T09:01:03.035Z,3.52
2019-03-10T09:03:54.076Z,3.62
2019-03-10T09:06:38.872Z,3.40
2019-03-10T09:09:17.639Z,3.20
2019-03-10T09:11:50.578Z,3.22
2019-03-10T09:14:35.624Z,3.52
2019-03-10T09:17:15.636Z,5.00
2019-03-10T09:19:48.372Z,4.83
2019-03-10T09:22:26.992Z,5.30
2019-03-10T09:25:18.035Z,5.28
2019-03-10T09:27:56.959Z,5.62
2019-03-10T09:30:38.470Z,6.60
2019-03-10T09:33:17.393Z,6.08
2019-03-10T09:35:50.121Z,6.53
2019-03-10T09:38:22.856Z,7.60
2019-03-10T09:40:59.584Z,6.75
2019-03-10T09:43:35.217Z,7.22
2019-03-10T09:46:13.666Z,7.22
2019-03-10T09:48:46.413Z,7.03
2019-03-10T09:51:22.101Z,6.40
2019-03-10T09:54:03.924Z,7.47
2019-03-10T09:56:38.436Z,6.60
2019-03-10T09:59:13.974Z,7.15
2019-03-10T10:01:51.572Z,7.72
2019-03-10T10:04:41.536Z,6.72
2019-03-10T10:07:14.440Z,7.62
2019-03-10T10:09:56.088Z,7.08
2019-03-10T10:12:29.532Z,7.00
2019-03-10T10:15:05.075Z,5.42
2019-03-10T10:17:49.889Z,3.27
2019-03-10T10:20:34.585Z,3.55
2019-03-10T10:23:23.387Z,2.90
2019-03-10T10:25:58.820Z,2.77
2019-03-10T10:28:37.324Z,2.45
2019-03-10T10:31:25.078Z,2.65
2019-03-10T10:34:01.151Z,2.87
2019-03-10T10:36:42.681Z,2.95
2019-03-10T10:40:12.158Z,2.37
2019-03-10T10:43:01.953Z,2.80
2019-03-10T10:45:34.695Z,2.50
2019-03-10T10:48:07.585Z,2.30
2019-03-10T10:50:55.505Z,1.67
2019-03-10T10:53:28.188Z,1.62
2019-03-10T10:56:14.452Z,1.50
2019-03-10T10:58:56.177Z,1.82
2019-03-10T11:01:31.618Z,1.57
2019-03-10T11:04:16.589Z,1.75
2019-03-10T11:06:51.051Z,1.95
2019-03-10T11:09:23.909Z,1.50
2019-03-10T11:12:05.670Z,1.40
2019-03-10T11:14:44.437Z,1.52
2019-03-10T11:17:28.964Z,1.40
2019-03-10T11:20:20.339Z,1.87
2019-03-10T11:23:09.788Z,1.92
2019-03-10T11:25:56.858Z,1.50
2019-03-10T11:28:29.608Z,1.10
2019-03-10T11:31:06.863Z,1.22
2019-03-10T11:33:46.051Z,1.35
2019-03-10T11:36:35.099Z,1.10
2019-03-10T11:39:24.705Z,1.20
2019-03-10T11:44:37.243Z,1.35
2019-03-10T11:47:16.168Z,1.20
2019-03-10T11:49:58.103Z,1.22
2019-03-10T11:52:30.836Z,2.00
2019-03-10T11:55:10.029Z,1.65
2019-03-10T11:57:42.749Z,1.40
2019-03-10T12:00:33.714Z,1.25
2019-03-10T12:03:22.891Z,1.55
2019-03-10T12:05:58.670Z,1.70
2019-03-10T12:08:46.740Z,1.50
2019-03-10T12:11:18.875Z,2.00
2019-03-10T12:13:50.052Z,1.72
2019-03-10T12:16:21.284Z,1.60
2019-03-10T12:18:53.702Z,1.45
2019-03-10T12:21:24.925Z,1.35
2019-03-10T12:23:56.101Z,1.10
2019-03-10T12:26:27.236Z,1.45
2019-03-10T12:28:58.406Z,1.20
2019-03-10T12:31:29.616Z,1.17
2019-03-10T12:34:01.086Z,1.30
2019-03-10T12:36:32.249Z,1.65
2019-03-10T12:39:09.851Z,1.98
2019-03-10T12:41:43.247Z,1.90
2019-03-10T12:44:14.462Z,1.32
2019-03-10T12:46:46.967Z,1.67
2019-03-10T12:49:18.163Z,1.55
2019-03-10T12:51:49.322Z,1.60
2019-03-10T12:54:21.301Z,1.50
2019-03-10T12:56:52.463Z,1.20
2019-03-10T12:59:23.722Z,1.35
2019-03-10T13:01:55.461Z,1.47
2019-03-10T13:04:26.627Z,1.50
2019-03-10T13:06:58.136Z,1.60
2019-03-10T13:09:30.318Z,1.50
2019-03-10T13:12:03.528Z,1.67
2019-03-10T13:14:36.265Z,2.17
2019-03-10T13:17:08.071Z,2.17
2019-03-10T13:19:39.193Z,2.25
2019-03-10T13:22:10.395Z,1.42
2019-03-10T13:27:11.895Z,2.47
2019-03-10T13:29:44.802Z,2.02
2019-03-10T13:32:17.099Z,2.20
2019-03-10T13:34:50.443Z,1.90
2019-03-10T13:37:23.154Z,1.57
2019-03-10T13:39:54.274Z,1.50
2019-03-10T13:42:27.031Z,3.02
2019-03-10T13:44:59.819Z,2.33
2019-03-10T13:47:31.025Z,2.25
2019-03-10T13:50:02.249Z,2.22
2019-03-10T13:52:33.457Z,1.98
2019-03-10T13:55:06.504Z,1.90
2019-03-10T13:57:38.074Z,2.37
2019-03-10T14:00:23.897Z,2.67
2019-03-10T14:02:55.643Z,2.50
2019-03-10T14:05:26.944Z,6.83
2019-03-10T14:07:59.086Z,22.50
2019-03-10T14:10:36.854Z,5.58
2019-03-10T14:13:09.094Z,2.70
2019-03-10T14:15:40.298Z,2.45
2019-03-10T14:18:11.434Z,1.77
2019-03-10T14:20:42.963Z,2.08
2019-03-10T14:23:14.194Z,1.90
2019-03-10T14:25:48.584Z,2.83
2019-03-10T14:28:22.064Z,2.70
2019-03-10T14:30:54.295Z,2.20
2019-03-10T14:33:27.487Z,2.20
2019-03-10T14:35:59.605Z,2.62
2019-03-10T14:38:32.737Z,2.33
2019-03-10T14:41:06.194Z,2.45
2019-03-10T14:43:37.866Z,2.30
2019-03-10T14:46:09.490Z,1.87
2019-03-10T14:48:42.197Z,1.90
2019-03-10T14:51:14.788Z,2.35
2019-03-10T14:53:45.928Z,2.20
2019-03-10T14:56:17.101Z,2.00
2019-03-10T14:58:49.887Z,2.33
2019-03-10T15:01:22.375Z,2.30
2019-03-10T15:03:53.780Z,2.20
2019-03-10T15:06:26.474Z,2.90
2019-03-10T15:08:57.641Z,2.92
2019-03-10T15:11:29.211Z,2.87
2019-03-10T15:14:00.281Z,2.37
2019-03-10T15:16:31.598Z,2.55
2019-03-10T15:19:03.272Z,2.70
2019-03-10T15:21:34.537Z,1.95
2019-03-10T15:24:07.222Z,2.47
2019-03-10T15:26:45.683Z,3.30
2019-03-10T15:29:11.292Z,3.12
2019-03-10T15:31:42.580Z,2.50
2019-03-10T15:34:14.379Z,2.98
2019-03-10T15:36:45.517Z,2.80
2019-03-10T15:39:18.048Z,2.30
2019-03-10T15:41:50.858Z,2.50
2019-03-10T15:44:22.057Z,2.62
2019-03-10T15:46:54.762Z,2.77
2019-03-10T15:49:26.451Z,2.27
2019-03-10T15:52:00.712Z,2.12
2019-03-10T15:54:34.946Z,2.70
2019-03-10T15:57:06.220Z,3.70
2019-03-10T15:59:39.106Z,3.27
2019-03-10T16:02:10.684Z,3.15
2019-03-10T16:04:44.015Z,2.65
2019-03-10T16:07:15.159Z,2.72
2019-03-10T16:09:46.315Z,3.33
2019-03-10T16:12:17.496Z,2.72
2019-03-10T16:14:48.643Z,2.83
2019-03-10T16:17:19.954Z,3.65
2019-03-10T16:19:51.619Z,4.72
2019-03-10T16:22:22.772Z,3.40
2019-03-10T16:24:53.955Z,3.42
2019-03-10T16:27:26.762Z,2.80
2019-03-10T16:29:59.464Z,3.52
2019-03-10T16:32:30.599Z,3.27
2019-03-10T16:35:03.114Z,3.62
2019-03-10T16:37:34.253Z,3.02
2019-03-10T16:40:14.590Z,3.00
2019-03-10T16:42:48.014Z,3.80
2019-03-10T16:45:27.780Z,3.92
2019-03-10T16:47:58.892Z,3.72
2019-03-10T16:50:30.481Z,4.10
2019-03-10T16:53:01.710Z,3.87
2019-03-10T16:55:32.819Z,5.15
2019-03-10T17:00:34.444Z,4.22
2019-03-10T17:03:57.561Z,4.70
2019-03-10T17:06:29.891Z,4.65
2019-03-10T17:09:04.568Z,5.42
2019-03-10T17:11:38.582Z,4.78
2019-03-10T17:14:10.555Z,4.53
2019-03-10T17:16:41.729Z,4.72
2019-03-10T17:19:12.950Z,5.47
2019-03-10T17:21:44.078Z,4.75
2019-03-10T17:26:45.671Z,4.17
2019-03-10T17:29:16.889Z,3.80
2019-03-10T17:31:49.020Z,3.55
2019-03-10T17:34:20.165Z,3.50
2019-03-10T17:36:52.316Z,3.90
2019-03-10T17:39:23.451Z,3.55
2019-03-10T17:41:54.626Z,3.12
2019-03-10T17:44:27.391Z,3.40
2019-03-10T17:46:58.587Z,3.25
2019-03-10T17:49:29.934Z,3.58
2019-03-10T17:52:01.065Z,3.98
2019-03-10T17:54:33.987Z,4.08
2019-03-10T17:57:05.153Z,4.05
2019-03-10T17:59:36.310Z,3.90
2019-03-10T18:02:09.348Z,3.77
2019-03-10T18:04:40.262Z,4.22
2019-03-10T18:07:11.380Z,3.75
2019-03-10T18:09:43.663Z,4.55
2019-03-10T18:12:14.978Z,4.05
2019-03-10T18:14:46.049Z,4.50
2019-03-10T18:17:17.620Z,4.10
2019-03-10T18:19:48.800Z,4.05
2019-03-10T18:22:21.167Z,5.10
2019-03-10T18:24:52.354Z,4.95
2019-03-10T18:27:23.524Z,5.97
2019-03-10T18:29:54.787Z,6.30
2019-03-10T18:32:28.012Z,5.45
2019-03-10T18:34:59.350Z,5.75
2019-03-10T18:37:33.002Z,6.20
2019-03-10T18:40:05.081Z,6.47
2019-03-10T18:42:36.262Z,6.10
2019-03-10T18:45:10.675Z,5.50
2019-03-10T18:47:43.385Z,6.40
2019-03-10T18:50:18.946Z,5.97
2019-03-10T18:52:49.959Z,5.75
2019-03-10T18:58:00.123Z,5.47
2019-03-10T19:03:03.078Z,5.95
2019-03-10T19:05:34.283Z,4.95
2019-03-10T19:08:06.108Z,4.67
2019-03-10T19:10:39.432Z,5.58
2019-03-10T19:13:12.053Z,4.67
2019-03-10T19:15:43.268Z,5.25
2019-03-10T19:18:15.936Z,4.70
2019-03-10T19:20:48.916Z,4.78
2019-03-10T19:23:22.877Z,5.42
2019-03-10T19:25:54.070Z,5.40
2019-03-10T19:28:25.277Z,5.20
2019-03-10T19:31:17.189Z,5.58
2019-03-10T19:33:50.653Z,4.90
2019-03-10T19:36:21.844Z,5.00
2019-03-10T19:38:52.940Z,5.35
2019-03-10T19:41:24.183Z,4.62
2019-03-10T19:43:55.307Z,4.90
2019-03-10T19:46:26.521Z,5.05
2019-03-10T19:48:59.188Z,4.87
2019-03-10T19:51:30.526Z,4.87
2019-03-10T19:54:01.669Z,4.90
2019-03-10T19:56:32.902Z,4.97
2019-03-10T19:59:05.042Z,5.10
2019-03-10T20:01:37.902Z,5.28
2019-03-10T20:04:09.091Z,5.42
2019-03-10T20:06:40.280Z,6.00
2019-03-10T20:09:11.445Z,6.72
2019-03-10T20:11:42.802Z,6.40
2019-03-10T20:14:13.894Z,6.53
2019-03-10T20:19:16.750Z,7.20
2019-03-10T20:21:48.948Z,6.97
2019-03-10T20:24:20.195Z,7.08
2019-03-10T20:26:53.049Z,7.80
2019-03-10T20:29:24.223Z,7.78
2019-03-10T20:34:25.814Z,7.37
2019-03-10T20:36:56.960Z,8.10
2019-03-10T20:39:29.705Z,7.50
2019-03-10T20:42:04.986Z,8.85
2019-03-10T20:44:35.219Z,7.50
2019-03-10T20:47:06.532Z,7.00
2019-03-10T20:49:38.740Z,8.40
2019-03-10T20:52:10.027Z,7.00
2019-03-10T20:54:42.497Z,7.58
2019-03-10T20:57:13.728Z,7.62
2019-03-10T20:59:44.811Z,7.58
2019-03-10T21:02:16.684Z,7.87
2019-03-10T21:04:47.815Z,6.97
2019-03-10T21:07:19.055Z,7.35
2019-03-10T21:09:50.181Z,8.35
2019-03-10T21:14:51.604Z,7.53
2019-03-10T21:17:22.689Z,6.85
2019-03-10T21:22:24.249Z,7.43
2019-03-10T21:24:57.311Z,7.17
2019-03-10T21:27:28.485Z,7.28
2019-03-10T21:29:59.622Z,7.90
2019-03-10T21:32:31.921Z,6.55
2019-03-10T21:35:03.063Z,6.75
2019-03-10T21:37:35.821Z,6.78
2019-03-10T21:40:10.039Z,7.50
2019-03-10T21:42:41.329Z,7.67
2019-03-10T21:45:12.524Z,8.15
2019-03-10T21:47:43.712Z,7.55
2019-03-10T21:50:16.162Z,7.37
2019-03-10T21:52:48.336Z,7.85
2019-03-10T21:55:19.479Z,8.55
2019-03-10T21:57:51.711Z,7.65
2019-03-10T22:00:22.847Z,7.90
2019-03-10T22:02:54.910Z,7.90
2019-03-10T22:05:26.683Z,7.58
2019-03-10T22:07:57.825Z,7.90
2019-03-10T22:10:29.731Z,7.75
2019-03-10T22:13:00.901Z,7.97
2019-03-10T22:15:41.070Z,7.65
2019-03-10T22:18:05.864Z,7.53
2019-03-10T22:20:37.034Z,7.60
2019-03-10T22:23:08.301Z,8.60
2019-03-10T22:25:41.003Z,7.58
2019-03-10T22:28:12.158Z,8.08
2019-03-10T22:30:44.675Z,7.30
2019-03-10T22:35:48.357Z,6.20
2019-03-10T22:40:51.122Z,6.53
2019-03-10T22:43:22.368Z,6.30
2019-03-10T22:45:55.662Z,6.03
2019-03-10T22:48:26.851Z,6.12
2019-03-10T22:50:59.482Z,5.87
2019-03-10T22:55:56.262Z,6.87
2019-03-10T22:58:27.398Z,6.62
2019-03-10T23:00:58.661Z,6.22
2019-03-10T23:03:30.270Z,6.47
2019-03-10T23:06:01.459Z,7.03
2019-03-10T23:08:32.602Z,6.85
2019-03-10T23:11:03.769Z,6.53
2019-03-10T23:13:34.899Z,7.05
2019-03-10T23:16:06.063Z,7.03
2019-03-10T23:18:37.239Z,6.45
2019-03-10T23:21:08.391Z,7.10
2019-03-10T23:23:39.591Z,6.78
2019-03-10T23:26:11.779Z,6.50
2019-03-10T23:28:42.951Z,7.85
2019-03-10T23:31:14.227Z,7.22
2019-03-10T23:33:45.654Z,7.25
2019-03-10T23:36:16.896Z,7.35
2019-03-10T23:38:48.255Z,7.30
2019-03-10T23:41:19.368Z,7.15
2019-03-10T23:43:50.575Z,7.70
2019-03-10T23:46:21.775Z,7.25
2019-03-10T23:48:52.944Z,6.55
2019-03-10T23:53:54.658Z,8.05
2019-03-10T23:56:25.779Z,7.47
2019-03-10T23:58:56.929Z,7.17
